Time;durP1;ratioP1;P1;durP2;ratioP2;P2;SDS_P1;SDS_P2;PMS_P1;PMS_P2;Temp;Humidity;BMP_temperature;BMP_pressure;BME280_temperature;BME280_humidity;BME280_pressure;Samples;Min_cycle;Max_cycle;Signal;HPM_P1;HPM_P2
2022/08/28 00:02:52;;;;;;;5.00;2.92;;;25.80;49.90;;;;;;10440740;28;20053;-36
2022/08/28 00:07:56;;;;;;;7.40;2.78;;;25.80;50.00;;;;;;10444969;28;20049;-36
2022/08/28 00:12:59;;;;;;;3.85;2.65;;;25.70;49.90;;;;;;10443321;28;20048;-38
2022/08/28 00:18:02;;;;;;;4.90;2.83;;;25.70;49.90;;;;;;10451182;28;20452;-36
2022/08/28 00:23:06;;;;;;;4.53;2.45;;;25.70;50.00;;;;;;10444330;28;20045;-36
2022/08/28 00:28:10;;;;;;;4.57;2.67;;;25.70;49.90;;;;;;10437340;28;20128;-35
2022/08/28 00:33:16;;;;;;;6.10;2.72;;;25.70;50.00;;;;;;10445690;28;20095;-35
2022/08/28 00:38:20;;;;;;;5.68;2.58;;;25.70;50.00;;;;;;10442312;28;20684;-35
2022/08/28 00:43:33;;;;;;;5.90;2.35;;;25.70;50.00;;;;;;10435884;28;20128;-35
2022/08/28 00:48:36;;;;;;;4.53;2.20;;;25.40;49.80;;;;;;10430342;28;20501;-35
2022/08/28 00:53:39;;;;;;;5.35;2.50;;;25.60;50.00;;;;;;10447947;28;20077;-35
2022/08/28 00:58:44;;;;;;;5.05;1.60;;;25.60;50.00;;;;;;10450070;28;20164;-36
2022/08/28 01:03:46;;;;;;;5.47;1.80;;;25.50;50.10;;;;;;10442084;28;20045;-35
2022/08/28 01:08:51;;;;;;;3.28;1.65;;;25.50;50.00;;;;;;10451967;28;20049;-35
2022/08/28 01:13:55;;;;;;;4.72;2.13;;;25.50;50.10;;;;;;10455475;28;20055;-34
2022/08/28 01:18:59;;;;;;;3.15;1.48;;;25.50;50.20;;;;;;10443635;28;20084;-35
2022/08/28 01:24:06;;;;;;;4.03;1.77;;;25.50;50.10;;;;;;10444037;28;20099;-34
2022/08/28 01:29:08;;;;;;;2.72;1.48;;;25.40;50.20;;;;;;10454030;28;20064;-36
2022/08/28 01:34:12;;;;;;;6.72;2.15;;;25.40;50.10;;;;;;10451371;28;20134;-36
2022/08/28 01:39:18;;;;;;;1.88;1.20;;;25.40;50.20;;;;;;10436838;28;20049;-36
2022/08/28 01:44:24;;;;;;;2.30;1.38;;;25.40;50.20;;;;;;10463388;28;20155;-36
2022/08/28 01:49:28;;;;;;;3.03;1.70;;;25.40;50.20;;;;;;10414377;28;20050;-35
2022/08/28 01:54:31;;;;;;;3.05;1.42;;;25.40;50.20;;;;;;10389126;28;20041;-35
2022/08/28 01:59:33;;;;;;;3.00;1.20;;;25.30;50.30;;;;;;10419400;28;20083;-35
2022/08/28 02:04:35;;;;;;;6.53;1.77;;;25.30;50.30;;;;;;10407580;28;20083;-35
2022/08/28 02:09:38;;;;;;;2.60;1.33;;;25.30;50.30;;;;;;10412210;28;20069;-34
2022/08/28 02:14:40;;;;;;;3.10;1.35;;;25.30;50.90;;;;;;10402622;28;20095;-35
2022/08/28 02:19:42;;;;;;;3.67;1.23;;;25.30;50.40;;;;;;10400376;28;20537;-35
2022/08/28 02:24:46;;;;;;;2.13;1.17;;;25.30;50.40;;;;;;10411056;28;20053;-36
2022/08/28 02:29:48;;;;;;;3.65;1.40;;;25.20;50.30;;;;;;10405673;28;20386;-35
2022/08/28 02:34:50;;;;;;;7.95;1.58;;;25.30;50.30;;;;;;10410922;28;20045;-35
2022/08/28 02:39:55;;;;;;;2.80;1.58;;;25.20;50.30;;;;;;10409382;28;20081;-35
2022/08/28 02:44:57;;;;;;;3.80;1.27;;;25.20;50.40;;;;;;10410124;28;20056;-35
2022/08/28 02:49:59;;;;;;;4.13;1.77;;;25.20;50.50;;;;;;10409431;28;20049;-33
2022/08/28 02:55:03;;;;;;;4.70;1.20;;;25.20;50.50;;;;;;10410581;28;20045;-34
2022/08/28 03:00:06;;;;;;;4.43;1.13;;;25.20;50.50;;;;;;10404269;28;20101;-35
2022/08/28 03:05:09;;;;;;;3.30;1.17;;;25.20;50.50;;;;;;10405650;28;20042;-35
2022/08/28 03:10:14;;;;;;;2.17;1.10;;;25.10;50.50;;;;;;10402952;28;20077;-35
2022/08/28 03:15:16;;;;;;;3.60;1.40;;;25.10;50.50;;;;;;10399380;28;20167;-34
2022/08/28 03:20:18;;;;;;;3.47;1.20;;;25.10;50.50;;;;;;10392586;28;20101;-34
2022/08/28 03:25:23;;;;;;;4.15;1.23;;;25.10;50.50;;;;;;10392528;28;20042;-34
2022/08/28 03:30:26;;;;;;;3.78;1.30;;;24.70;50.40;;;;;;10404515;28;20139;-34
2022/08/28 03:35:27;;;;;;;6.95;1.60;;;25.10;50.70;;;;;;10403977;28;20486;-35
2022/08/28 03:40:31;;;;;;;6.35;1.48;;;25.00;50.60;;;;;;10410697;28;20095;-36
2022/08/28 03:45:33;;;;;;;2.92;1.13;;;25.00;50.60;;;;;;10409386;28;20049;-35
2022/08/28 03:50:35;;;;;;;3.05;1.20;;;24.80;50.60;;;;;;10403239;28;20080;-36
2022/08/28 03:55:40;;;;;;;1.88;0.98;;;25.00;50.70;;;;;;10419054;28;20080;-37
2022/08/28 04:00:42;;;;;;;3.03;1.17;;;24.90;50.70;;;;;;10432041;28;20050;-36
2022/08/28 04:05:45;;;;;;;2.95;1.20;;;24.90;50.70;;;;;;10407570;28;20053;-36
2022/08/28 04:10:49;;;;;;;3.10;1.48;;;24.90;50.70;;;;;;10413568;28;20045;-36
2022/08/28 04:15:58;;;;;;;4.53;1.23;;;24.90;50.70;;;;;;10405608;28;20069;-35
2022/08/28 04:21:01;;;;;;;2.97;1.15;;;24.90;50.80;;;;;;10398337;28;20463;-36
2022/08/28 04:26:05;;;;;;;4.22;1.30;;;24.90;50.80;;;;;;10403426;28;20053;-34
2022/08/28 04:31:08;;;;;;;3.85;1.02;;;24.80;50.80;;;;;;10412955;28;20041;-35
2022/08/28 04:36:12;;;;;;;3.40;1.52;;;24.90;50.80;;;;;;10401218;28;20073;-35
2022/08/28 04:41:16;;;;;;;4.55;1.20;;;24.80;50.80;;;;;;10406226;28;20486;-35
2022/08/28 04:46:19;;;;;;;2.60;1.42;;;24.80;50.80;;;;;;10431387;28;20137;-35
2022/08/28 04:51:21;;;;;;;3.22;1.35;;;24.80;50.90;;;;;;10476643;28;20094;-34
2022/08/28 04:56:25;;;;;;;3.58;1.17;;;24.80;50.90;;;;;;10453521;28;20041;-35
2022/08/28 05:01:27;;;;;;;2.67;1.30;;;24.80;50.90;;;;;;10431441;28;20076;-34
2022/08/28 05:06:31;;;;;;;5.63;1.23;;;24.70;50.80;;;;;;10441548;28;20405;-36
2022/08/28 05:11:34;;;;;;;4.13;1.40;;;24.70;50.90;;;;;;10451698;28;20144;-35
2022/08/28 05:16:42;;;;;;;1.70;0.90;;;24.70;50.80;;;;;;10440288;28;20140;-36
2022/08/28 05:21:44;;;;;;;3.38;1.23;;;24.90;51.00;;;;;;10436557;28;20422;-35
2022/08/28 05:26:47;;;;;;;2.95;1.20;;;24.80;51.50;;;;;;10436583;28;20076;-35
2022/08/28 05:31:49;;;;;;;1.50;0.98;;;24.70;50.90;;;;;;10442657;28;20536;-32
2022/08/28 05:36:51;;;;;;;;;;;24.70;50.90;;;;;;10457196;28;20081;-34
2022/08/28 05:41:54;;;;;;;2.58;1.23;;;24.70;51.00;;;;;;10443286;28;20379;-36
2022/08/28 05:46:56;;;;;;;2.10;1.00;;;24.70;50.90;;;;;;10451159;28;20053;-35
2022/08/28 05:51:58;;;;;;;;;;;24.70;51.00;;;;;;10441667;28;20718;-35
2022/08/28 05:57:01;;;;;;;;;;;24.70;50.90;;;;;;10452803;28;19921;-36
2022/08/28 06:02:06;;;;;;;2.95;1.15;;;24.70;50.90;;;;;;10459118;28;19924;-35
2022/08/28 06:07:10;;;;;;;2.35;1.00;;;24.70;51.50;;;;;;10473630;28;20044;-36
2022/08/28 06:12:14;;;;;;;2.15;1.17;;;24.80;50.90;;;;;;10446055;28;20134;-37
2022/08/28 06:17:16;;;;;;;3.70;1.17;;;25.10;51.20;;;;;;10427679;28;20046;-31
2022/08/28 06:22:18;;;;;;;2.45;1.30;;;24.70;50.80;;;;;;10443677;28;20056;-35
2022/08/28 06:27:21;;;;;;;;;;;24.80;50.80;;;;;;10439818;28;20103;-35
2022/08/28 06:32:22;;;;;;;1.80;0.90;;;24.90;50.70;;;;;;10442792;28;19956;-36
2022/08/28 06:37:25;;;;;;;;;;;25.00;50.50;;;;;;10442088;28;20045;-36
2022/08/28 06:42:30;;;;;;;4.47;1.05;;;24.80;50.60;;;;;;10455055;28;19983;-36
2022/08/28 06:47:31;;;;;;;2.40;1.08;;;24.90;50.50;;;;;;10423675;28;20049;-35
2022/08/28 06:52:33;;;;;;;;;;;24.90;50.50;;;;;;10415126;28;20545;-35
2022/08/28 06:57:36;;;;;;;5.07;1.17;;;25.00;50.60;;;;;;10404726;28;19960;-35
2022/08/28 07:02:38;;;;;;;2.65;1.10;;;24.60;50.40;;;;;;10402526;28;20150;-35
2022/08/28 07:07:40;;;;;;;3.53;1.92;;;24.50;50.70;;;;;;10393280;28;20112;-35
2022/08/28 07:12:44;;;;;;;6.10;1.75;;;24.90;50.50;;;;;;10401675;28;20052;-36
2022/08/28 07:17:46;;;;;;;1.38;0.80;;;24.90;50.60;;;;;;10399741;28;20045;-36
2022/08/28 07:22:47;;;;;;;4.60;1.10;;;25.00;50.30;;;;;;10408311;28;20524;-36
2022/08/28 07:27:51;;;;;;;4.18;1.10;;;25.00;50.40;;;;;;10406905;28;20509;-35
2022/08/28 07:32:52;;;;;;;3.35;1.33;;;24.80;50.90;;;;;;10414439;28;20124;-35
2022/08/28 07:37:54;;;;;;;2.38;0.70;;;24.90;50.10;;;;;;10407409;28;20489;-35
2022/08/28 07:48:16;;;;;;;2.20;0.85;;;25.10;50.00;;;;;;10442245;28;19924;-34
2022/08/28 07:53:18;;;;;;;5.05;1.83;;;25.10;50.00;;;;;;10441675;28;20096;-34
2022/08/28 07:58:24;;;;;;;5.35;1.38;;;24.90;50.10;;;;;;10451701;28;20045;-34
2022/08/28 08:03:26;;;;;;;3.33;0.63;;;25.20;49.90;;;;;;10453814;28;20068;-35
2022/08/28 08:08:28;;;;;;;4.40;1.00;;;25.10;50.00;;;;;;10458445;28;21011;-35
2022/08/28 08:13:33;;;;;;;2.53;0.73;;;25.20;49.70;;;;;;10448428;28;20064;-37
2022/08/28 08:18:36;;;;;;;2.78;0.85;;;25.20;49.60;;;;;;10452733;28;20115;-35
2022/08/28 08:23:38;;;;;;;3.78;1.02;;;25.30;49.60;;;;;;10456618;28;20090;-35
2022/08/28 08:28:43;;;;;;;1.27;0.90;;;25.20;49.60;;;;;;10460074;28;20098;-35
2022/08/28 08:33:47;;;;;;;1.90;0.80;;;25.10;49.40;;;;;;10450298;28;20123;-35
2022/08/28 08:38:50;;;;;;;2.97;1.00;;;25.30;49.40;;;;;;10455652;28;20080;-35
2022/08/28 08:43:59;;;;;;;4.40;1.00;;;25.20;49.20;;;;;;10451357;28;20083;-36
2022/08/28 08:49:04;;;;;;;1.65;0.68;;;25.30;49.50;;;;;;10449056;28;20091;-35
2022/08/28 08:54:09;;;;;;;3.33;0.80;;;25.30;49.40;;;;;;10464491;28;20099;-36
2022/08/28 08:59:17;;;;;;;2.97;1.00;;;25.30;49.50;;;;;;10465920;28;20589;-36
2022/08/28 09:04:33;;;;;;;3.03;0.80;;;24.90;50.40;;;;;;10453767;28;20060;-36
2022/08/28 09:09:39;;;;;;;2.13;0.90;;;25.00;49.50;;;;;;10446044;28;20041;-35
2022/08/28 09:14:52;;;;;;;1.23;0.60;;;25.30;49.40;;;;;;10439872;28;20143;-37
2022/08/28 09:19:54;;;;;;;3.92;1.00;;;25.20;49.70;;;;;;10442196;28;20140;-35
2022/08/28 09:24:56;;;;;;;;;;;25.40;49.40;;;;;;10454067;28;20197;-36
2022/08/28 09:30:02;;;;;;;3.35;0.68;;;26.10;49.70;;;;;;10450855;28;19984;-34
2022/08/28 09:35:11;;;;;;;3.50;1.80;;;25.30;48.90;;;;;;10464727;28;20428;-35
2022/08/28 09:40:16;;;;;;;2.38;0.73;;;25.40;49.20;;;;;;10443945;28;20053;-37
2022/08/28 09:45:22;;;;;;;4.65;0.85;;;25.30;49.00;;;;;;10455506;28;20137;-36
2022/08/28 09:50:28;;;;;;;2.60;1.80;;;25.00;49.20;;;;;;10436428;28;20485;-36
2022/08/28 09:55:36;;;;;;;2.38;1.10;;;25.30;49.10;;;;;;10470065;28;20100;-36
2022/08/28 10:00:47;;;;;;;4.50;1.38;;;25.60;49.20;;;;;;10443416;28;20063;-34
2022/08/28 10:05:58;;;;;;;1.70;0.70;;;25.90;48.90;;;;;;10455258;28;20106;-35
2022/08/28 10:11:06;;;;;;;2.60;0.77;;;25.50;49.20;;;;;;10452113;28;20474;-36
2022/08/28 10:16:19;;;;;;;3.90;0.70;;;25.50;49.00;;;;;;10458010;28;20050;-36
2022/08/28 10:21:24;;;;;;;1.58;0.70;;;25.50;49.00;;;;;;10448089;28;20540;-35
2022/08/28 10:26:39;;;;;;;2.60;0.90;;;25.50;49.10;;;;;;10443816;28;20136;-36
2022/08/28 10:31:50;;;;;;;1.42;0.65;;;24.70;49.80;;;;;;10448585;28;20045;-35
2022/08/28 10:36:59;;;;;;;2.90;0.80;;;25.30;49.40;;;;;;10456005;28;20041;-34
2022/08/28 10:42:04;;;;;;;0.88;0.70;;;25.40;49.50;;;;;;10446818;28;20080;-36
2022/08/28 10:47:10;;;;;;;1.88;0.70;;;25.40;49.20;;;;;;10451012;28;20129;-36
2022/08/28 10:52:15;;;;;;;2.38;0.85;;;25.40;49.50;;;;;;10463481;28;20045;-35
2022/08/28 10:57:28;;;;;;;4.53;1.05;;;25.70;49.00;;;;;;10459775;28;20381;-37
2022/08/28 11:02:32;;;;;;;5.22;1.25;;;25.50;49.40;;;;;;10456145;28;20509;-35
2022/08/28 11:07:38;;;;;;;1.90;0.90;;;25.60;49.40;;;;;;10449134;28;20049;-36
2022/08/28 11:12:42;;;;;;;5.80;0.98;;;25.50;49.60;;;;;;10446850;28;20108;-35
2022/08/28 11:17:46;;;;;;;3.78;1.02;;;25.60;49.40;;;;;;10441702;28;20045;-36
2022/08/28 11:22:53;;;;;;;4.38;0.77;;;25.20;49.70;;;;;;10428597;28;20061;-36
2022/08/28 11:28:15;;;;;;;2.47;1.08;;;24.80;52.60;;;;;;10437697;28;20041;-35
2022/08/28 11:33:41;;;;;;;1.55;0.95;;;25.60;50.00;;;;;;10446604;28;20128;-36
2022/08/28 11:39:05;;;;;;;4.75;1.55;;;25.70;49.50;;;;;;10451373;28;20084;-36
2022/08/28 11:44:37;;;;;;;4.88;1.10;;;25.30;51.60;;;;;;10445164;28;20495;-37
2022/08/28 11:49:44;;;;;;;2.70;1.25;;;25.30;51.20;;;;;;10440911;28;20095;-32
2022/08/28 11:54:53;;;;;;;7.07;1.10;;;25.40;50.50;;;;;;10444136;28;20128;-37
2022/08/28 12:00:05;;;;;;;3.30;1.10;;;25.40;50.20;;;;;;10438191;28;20037;-36
2022/08/28 12:05:12;;;;;;;4.53;1.02;;;25.70;50.30;;;;;;10437433;28;20104;-36
2022/08/28 12:10:57;;;;;;;2.83;0.80;;;25.40;50.00;;;;;;10450361;28;20059;-39
2022/08/28 12:16:04;;;;;;;3.50;1.27;;;25.50;51.00;;;;;;10408285;28;20411;-38
2022/08/28 12:21:16;;;;;;;2.92;1.13;;;25.40;50.90;;;;;;10440613;28;20084;-36
2022/08/28 12:26:23;;;;;;;2.23;0.83;;;25.70;50.70;;;;;;10449101;28;20467;-35
2022/08/28 12:32:13;;;;;;;6.15;1.00;;;25.40;51.10;;;;;;10443526;28;20514;-35
2022/08/28 12:37:32;;;;;;;1.73;0.75;;;25.70;51.20;;;;;;10446591;28;20449;-36
2022/08/28 12:42:38;;;;;;;2.50;0.85;;;25.50;51.60;;;;;;10441201;28;20084;-36
2022/08/28 12:47:44;;;;;;;2.40;0.93;;;25.10;51.70;;;;;;10458892;28;20417;-36
2022/08/28 12:52:50;;;;;;;4.25;1.00;;;25.70;50.90;;;;;;10468835;28;20072;-35
2022/08/28 12:57:53;;;;;;;2.58;0.73;;;26.20;50.80;;;;;;10453598;28;20063;-35
2022/08/28 13:02:56;;;;;;;3.47;1.25;;;26.10;50.80;;;;;;10450216;28;20050;-35
2022/08/28 13:08:02;;;;;;;2.80;0.90;;;27.20;50.40;;;;;;10444798;28;20053;-37
2022/08/28 13:13:09;;;;;;;2.67;0.90;;;26.50;50.00;;;;;;10442436;28;20040;-34
2022/08/28 13:18:50;;;;;;;1.50;0.80;;;26.40;50.40;;;;;;10450510;28;20041;-35
2022/08/28 13:23:55;;;;;;;2.83;0.90;;;26.80;49.70;;;;;;10431509;28;20053;-36
2022/08/28 13:29:00;;;;;;;1.10;0.65;;;26.90;49.00;;;;;;10442460;28;20068;-36
2022/08/28 13:34:07;;;;;;;4.07;1.10;;;26.90;49.50;;;;;;10451852;28;20052;-35
2022/08/28 13:39:11;;;;;;;1.85;0.60;;;26.60;49.80;;;;;;10438506;28;20133;-35
2022/08/28 13:44:45;;;;;;;2.53;1.02;;;26.90;50.10;;;;;;10450310;28;20045;-36
2022/08/28 13:49:47;;;;;;;1.88;0.80;;;27.20;49.00;;;;;;10433077;28;20468;-28
2022/08/28 13:54:51;;;;;;;1.10;0.60;;;27.30;49.60;;;;;;10446863;28;20064;-35
2022/08/28 13:59:53;;;;;;;1.77;0.75;;;27.30;50.30;;;;;;10434763;28;20799;-36
2022/08/28 14:04:55;;;;;;;5.70;1.15;;;27.50;49.30;;;;;;10436422;28;20099;-36
2022/08/28 14:09:58;;;;;;;2.70;0.90;;;27.60;48.40;;;;;;10447540;28;20130;-35
2022/08/28 14:15:01;;;;;;;3.30;0.90;;;27.70;49.00;;;;;;10455799;28;20045;-37
2022/08/28 14:20:04;;;;;;;1.55;0.77;;;28.00;47.90;;;;;;10437043;28;20045;-35
2022/08/28 14:25:09;;;;;;;2.67;0.82;;;27.90;49.20;;;;;;10444113;28;20041;-37
2022/08/28 14:30:11;;;;;;;2.15;0.98;;;28.00;49.60;;;;;;10442535;28;20069;-38
2022/08/28 14:35:13;;;;;;;3.40;0.82;;;28.10;48.60;;;;;;10437972;28;20076;-34
2022/08/28 14:40:16;;;;;;;3.70;0.90;;;28.10;49.50;;;;;;10440733;28;20158;-36
2022/08/28 14:45:19;;;;;;;1.20;0.60;;;28.20;48.70;;;;;;10442337;28;20157;-35
2022/08/28 14:50:20;;;;;;;4.65;1.17;;;28.10;48.40;;;;;;10429485;28;20127;-33
2022/08/28 14:55:25;;;;;;;2.35;0.60;;;28.20;48.20;;;;;;10431826;28;20045;-36
2022/08/28 15:00:27;;;;;;;1.80;0.63;;;28.20;48.30;;;;;;10443338;28;20151;-33
2022/08/28 15:05:28;;;;;;;1.73;0.70;;;28.40;48.70;;;;;;10443955;28;20501;-36
2022/08/28 15:10:32;;;;;;;2.92;0.80;;;28.30;47.80;;;;;;10442084;28;20095;-37
2022/08/28 15:15:34;;;;;;;8.02;0.90;;;28.30;47.80;;;;;;10437882;28;20045;-37
2022/08/28 15:20:38;;;;;;;4.28;1.23;;;28.20;48.00;;;;;;10440186;28;20049;-36
2022/08/28 15:25:42;;;;;;;3.83;0.85;;;28.60;47.80;;;;;;10431111;28;20069;-37
2022/08/28 15:30:44;;;;;;;5.32;0.80;;;28.50;47.70;;;;;;10432819;28;20087;-37
2022/08/28 15:35:47;;;;;;;7.13;1.20;;;28.60;48.00;;;;;;10435891;28;20073;-35
2022/08/28 15:46:11;;;;;;;2.33;1.33;;;28.70;47.60;;;;;;10429903;28;20054;-37
2022/08/28 15:51:14;;;;;;;3.00;0.80;;;28.90;47.40;;;;;;10455132;28;20072;-36
2022/08/28 15:56:17;;;;;;;6.82;1.10;;;28.90;48.10;;;;;;10439311;28;20045;-37
2022/08/28 16:01:19;;;;;;;5.45;1.00;;;28.80;47.40;;;;;;10436189;28;20486;-34
2022/08/28 16:06:22;;;;;;;4.03;0.80;;;28.80;47.50;;;;;;10435709;28;20073;-37
2022/08/28 16:11:26;;;;;;;4.28;1.08;;;28.80;49.90;;;;;;10427105;28;20114;-35
2022/08/28 16:16:28;;;;;;;3.58;0.68;;;29.60;47.80;;;;;;10424656;28;20049;-37
2022/08/28 16:21:30;;;;;;;4.82;0.98;;;29.00;47.60;;;;;;10441444;28;20046;-36
2022/08/28 16:26:34;;;;;;;2.00;0.85;;;29.20;47.80;;;;;;10445263;28;20098;-33
2022/08/28 16:31:36;;;;;;;3.90;1.17;;;29.10;47.80;;;;;;10440448;28;20100;-37
2022/08/28 16:36:37;;;;;;;2.78;1.13;;;29.20;47.20;;;;;;10464600;28;20068;-35
2022/08/28 16:41:41;;;;;;;3.60;1.10;;;29.20;47.50;;;;;;10447900;28;20049;-35
2022/08/28 16:46:44;;;;;;;6.57;1.35;;;29.00;47.70;;;;;;10434286;28;20057;-35
2022/08/28 16:51:45;;;;;;;11.30;1.70;;;29.10;47.20;;;;;;10445071;28;20081;-34
2022/08/28 16:56:49;;;;;;;6.95;1.52;;;29.10;47.90;;;;;;10452972;28;20052;-37
2022/08/28 17:01:51;;;;;;;18.30;2.70;;;29.10;47.70;;;;;;10449887;28;20080;-34
2022/08/28 17:06:53;;;;;;;16.23;3.28;;;29.10;47.70;;;;;;10457244;28;20575;-35
2022/08/28 17:11:56;;;;;;;18.95;2.78;;;29.00;47.60;;;;;;10450193;28;20119;-36
2022/08/28 17:16:58;;;;;;;18.60;2.10;;;29.00;47.70;;;;;;10445920;28;20059;-34
2022/08/28 17:27:20;;;;;;;12.75;2.30;;;29.10;47.60;;;;;;10437696;28;20057;-35
2022/08/28 17:32:22;;;;;;;5.53;1.40;;;29.10;47.60;;;;;;10444404;28;20076;-34
2022/08/28 17:37:24;;;;;;;13.27;1.48;;;29.00;47.60;;;;;;10447803;28;20095;-37
2022/08/28 17:42:27;;;;;;;8.05;1.48;;;29.00;47.60;;;;;;10439477;28;20144;-37
2022/08/28 17:47:30;;;;;;;4.95;1.40;;;29.00;47.80;;;;;;10446899;28;20076;-34
2022/08/28 17:52:32;;;;;;;6.35;1.58;;;29.10;47.80;;;;;;10443914;28;20056;-35
2022/08/28 17:57:36;;;;;;;5.93;1.15;;;29.00;47.70;;;;;;10451517;28;20045;-34
2022/08/28 18:02:39;;;;;;;7.72;1.77;;;28.90;47.70;;;;;;10443449;28;20148;-35
2022/08/28 18:07:40;;;;;;;6.03;1.08;;;28.80;47.70;;;;;;10446788;28;20049;-36
2022/08/28 18:12:44;;;;;;;2.65;1.10;;;28.80;47.90;;;;;;10445637;28;21327;-35
2022/08/28 18:17:49;;;;;;;8.73;1.75;;;28.70;47.80;;;;;;10447192;28;20540;-36
2022/08/28 18:22:51;;;;;;;8.68;1.60;;;28.70;48.00;;;;;;10451658;28;20493;-34
2022/08/28 18:27:54;;;;;;;5.57;1.55;;;28.70;48.10;;;;;;10447616;28;20099;-31
2022/08/28 18:32:56;;;;;;;7.22;1.73;;;28.60;48.10;;;;;;10451310;28;20438;-35
2022/08/28 18:37:58;;;;;;;7.40;1.88;;;28.60;48.20;;;;;;10459389;28;20086;-31
2022/08/28 18:43:03;;;;;;;4.60;1.38;;;28.50;48.30;;;;;;10439846;28;20052;-32
2022/08/28 18:48:06;;;;;;;7.55;1.15;;;28.50;48.30;;;;;;10447136;28;20080;-35
2022/08/28 18:53:08;;;;;;;5.60;1.15;;;28.70;48.50;;;;;;10454330;28;20045;-36
2022/08/28 18:58:12;;;;;;;7.00;1.30;;;28.40;48.50;;;;;;10451920;28;20088;-35
2022/08/28 19:03:14;;;;;;;4.25;1.38;;;28.40;48.60;;;;;;10436603;28;20138;-36
2022/08/28 19:08:16;;;;;;;4.85;1.52;;;28.30;48.70;;;;;;10419865;28;20051;-35
2022/08/28 19:13:19;;;;;;;5.05;2.45;;;28.30;48.80;;;;;;10421677;28;20107;-36
2022/08/28 19:18:22;;;;;;;6.63;1.90;;;28.30;48.80;;;;;;10449404;28;20072;-37
2022/08/28 19:23:24;;;;;;;5.07;2.08;;;28.30;48.90;;;;;;10455125;28;21148;-35
2022/08/28 19:28:27;;;;;;;5.85;2.40;;;28.20;48.80;;;;;;10448635;28;20094;-36
2022/08/28 19:33:30;;;;;;;3.83;2.08;;;28.20;48.90;;;;;;10442304;28;20579;-35
2022/08/28 19:38:32;;;;;;;3.47;1.60;;;28.10;48.80;;;;;;10434275;28;20068;-35
2022/08/28 19:43:36;;;;;;;7.18;1.48;;;28.10;48.90;;;;;;10434968;28;20140;-35
2022/08/28 19:48:38;;;;;;;3.47;1.10;;;28.00;48.80;;;;;;10421237;28;20543;-36
2022/08/28 19:53:41;;;;;;;3.42;1.55;;;28.00;48.80;;;;;;10427358;28;20139;-34
2022/08/28 19:58:44;;;;;;;4.60;1.10;;;27.90;48.70;;;;;;10446580;28;20567;-35
2022/08/28 20:03:46;;;;;;;1.38;0.88;;;27.90;48.80;;;;;;10455321;28;20059;-36
2022/08/28 20:08:48;;;;;;;2.88;0.73;;;27.90;48.80;;;;;;10451800;28;20104;-35
2022/08/28 20:13:52;;;;;;;1.55;0.77;;;27.80;48.90;;;;;;10458460;28;20486;-35
2022/08/28 20:18:56;;;;;;;1.35;0.90;;;27.80;48.90;;;;;;10429835;28;20076;-34
2022/08/28 20:23:58;;;;;;;0.95;0.50;;;27.80;48.90;;;;;;10450951;28;20551;-33
2022/08/28 20:29:02;;;;;;;0.60;0.50;;;27.70;49.00;;;;;;10441019;28;20471;-36
2022/08/28 20:34:03;;;;;;;3.95;0.98;;;27.70;49.00;;;;;;10439713;28;20386;-35
2022/08/28 20:39:08;;;;;;;2.13;0.70;;;27.70;49.10;;;;;;10453401;28;20045;-35
2022/08/28 20:44:13;;;;;;;0.82;0.60;;;27.60;49.10;;;;;;10444636;28;20045;-32
2022/08/28 20:49:16;;;;;;;2.25;0.80;;;27.60;49.30;;;;;;10450789;28;20112;-36
2022/08/28 20:54:19;;;;;;;1.00;0.60;;;27.60;49.30;;;;;;10456133;28;20060;-34
2022/08/28 20:59:22;;;;;;;2.58;0.95;;;27.60;49.40;;;;;;10445775;28;20041;-35
2022/08/28 21:04:24;;;;;;;1.02;0.60;;;27.60;49.50;;;;;;10461185;28;20080;-34
2022/08/28 21:09:26;;;;;;;1.38;0.50;;;27.60;49.60;;;;;;10450210;28;20076;-35
2022/08/28 21:14:30;;;;;;;2.47;0.70;;;27.50;49.60;;;;;;10455520;28;20080;-35
2022/08/28 21:19:32;;;;;;;1.05;0.63;;;27.40;49.60;;;;;;10448236;28;20307;-36
2022/08/28 21:24:34;;;;;;;1.50;0.88;;;27.40;49.60;;;;;;10447749;28;20511;-33
2022/08/28 21:29:37;;;;;;;1.65;0.40;;;27.40;49.70;;;;;;10455463;28;20088;-35
2022/08/28 21:34:39;;;;;;;2.20;0.60;;;27.40;49.80;;;;;;10447519;28;20106;-33
2022/08/28 21:39:40;;;;;;;1.02;0.60;;;27.30;49.80;;;;;;10453622;28;20057;-35
2022/08/28 21:44:44;;;;;;;1.85;0.70;;;27.30;49.80;;;;;;10430262;28;20085;-32
2022/08/28 21:49:48;;;;;;;2.38;0.75;;;27.20;49.90;;;;;;10432775;28;20049;-35
2022/08/28 21:54:50;;;;;;;1.23;0.60;;;27.20;49.90;;;;;;10453584;28;20464;-33
2022/08/28 21:59:54;;;;;;;1.20;0.50;;;27.20;49.90;;;;;;10441852;28;20049;-34
2022/08/28 22:04:56;;;;;;;1.73;0.60;;;27.10;50.00;;;;;;10448818;28;20465;-33
2022/08/28 22:09:58;;;;;;;0.68;0.50;;;27.10;50.10;;;;;;10443518;28;20041;-31
2022/08/28 22:15:01;;;;;;;0.85;0.60;;;27.20;50.20;;;;;;10455282;28;20041;-35
2022/08/28 22:20:04;;;;;;;0.75;0.40;;;27.10;50.20;;;;;;10453358;28;20523;-36
2022/08/28 22:25:07;;;;;;;0.98;0.50;;;27.10;50.20;;;;;;10459861;28;20045;-35
2022/08/28 22:30:12;;;;;;;1.08;0.77;;;27.00;50.20;;;;;;10449006;28;20399;-34
2022/08/28 22:35:14;;;;;;;1.45;0.57;;;27.00;50.30;;;;;;10437938;28;20114;-36
2022/08/28 22:40:16;;;;;;;1.58;0.70;;;27.00;50.30;;;;;;10442073;28;20052;-35
2022/08/28 22:45:20;;;;;;;1.77;0.65;;;26.90;50.30;;;;;;10443450;28;20049;-34
2022/08/28 22:50:22;;;;;;;1.63;0.57;;;26.90;50.30;;;;;;10443142;28;20068;-33
2022/08/28 22:55:24;;;;;;;3.83;0.82;;;26.90;50.40;;;;;;10437548;28;20076;-34
2022/08/28 23:00:28;;;;;;;3.28;0.73;;;26.90;50.40;;;;;;10434969;28;20049;-35
2022/08/28 23:05:31;;;;;;;2.70;0.50;;;27.00;50.50;;;;;;10428579;28;20744;-34
2022/08/28 23:10:32;;;;;;;1.20;0.70;;;26.80;50.40;;;;;;10430142;28;20140;-34
2022/08/28 23:15:36;;;;;;;3.33;0.90;;;26.70;50.40;;;;;;10433824;28;20049;-35
2022/08/28 23:20:38;;;;;;;1.67;0.70;;;26.70;50.40;;;;;;10432380;28;20048;-35
2022/08/28 23:25:40;;;;;;;2.47;0.77;;;26.70;50.40;;;;;;10440844;28;20143;-35
2022/08/28 23:30:43;;;;;;;1.75;0.70;;;26.60;50.40;;;;;;10444922;28;20414;-34
2022/08/28 23:35:45;;;;;;;0.93;0.60;;;26.60;50.40;;;;;;10446100;28;20053;-34
2022/08/28 23:40:47;;;;;;;1.88;0.60;;;26.60;50.40;;;;;;10447108;28;20119;-34
2022/08/28 23:45:50;;;;;;;1.50;0.90;;;26.50;50.30;;;;;;10435728;28;20063;-35
2022/08/28 23:50:52;;;;;;;1.90;0.73;;;26.50;50.40;;;;;;10444303;28;20047;-34
2022/08/28 23:55:54;;;;;;;2.58;0.70;;;26.50;50.40;;;;;;10442314;28;20126;-32
